sensor_id;sensor_type;location;lat;lon;timestamp;P1;durP1;ratioP1;P2;durP2;ratioP2
49488;SDS011;35382;51.484;11.476;2022-11-28T00:00:56;14.38;;;8.05;;
49488;SDS011;35382;51.484;11.476;2022-11-28T00:02:37;14.27;;;7.38;;
49488;SDS011;35382;51.484;11.476;2022-11-28T00:04:18;10.60;;;6.93;;
49488;SDS011;35382;51.484;11.476;2022-11-28T00:06:03;12.68;;;7.85;;
49488;SDS011;35382;51.484;11.476;2022-11-28T00:07:44;13.63;;;7.00;;
49488;SDS011;35382;51.484;11.476;2022-11-28T00:09:25;12.35;;;7.47;;
49488;SDS011;35382;51.484;11.476;2022-11-28T00:11:07;11.10;;;7.60;;
49488;SDS011;35382;51.484;11.476;2022-11-28T00:12:49;13.60;;;7.95;;
49488;SDS011;35382;51.484;11.476;2022-11-28T00:14:30;12.98;;;7.75;;
49488;SDS011;35382;51.484;11.476;2022-11-28T00:16:15;12.40;;;7.50;;
49488;SDS011;35382;51.484;11.476;2022-11-28T00:17:59;13.98;;;7.60;;
49488;SDS011;35382;51.484;11.476;2022-11-28T00:19:40;12.10;;;7.70;;
49488;SDS011;35382;51.484;11.476;2022-11-28T00:21:21;11.13;;;7.55;;
49488;SDS011;35382;51.484;11.476;2022-11-28T00:23:02;12.18;;;7.72;;
49488;SDS011;35382;51.484;11.476;2022-11-28T00:24:43;14.40;;;8.75;;
49488;SDS011;35382;51.484;11.476;2022-11-28T00:28:06;12.02;;;7.22;;
49488;SDS011;35382;51.484;11.476;2022-11-28T00:29:47;16.10;;;8.10;;
49488;SDS011;35382;51.484;11.476;2022-11-28T00:31:30;14.57;;;8.13;;
49488;SDS011;35382;51.484;11.476;2022-11-28T00:33:12;13.48;;;7.75;;
49488;SDS011;35382;51.484;11.476;2022-11-28T00:34:53;13.88;;;8.38;;
49488;SDS011;35382;51.484;11.476;2022-11-28T00:36:34;13.48;;;7.57;;
49488;SDS011;35382;51.484;11.476;2022-11-28T00:38:15;15.00;;;8.80;;
49488;SDS011;35382;51.484;11.476;2022-11-28T00:39:56;14.20;;;8.05;;
49488;SDS011;35382;51.484;11.476;2022-11-28T00:41:37;13.48;;;8.63;;
49488;SDS011;35382;51.484;11.476;2022-11-28T00:43:18;15.93;;;9.20;;
49488;SDS011;35382;51.484;11.476;2022-11-28T00:44:59;15.55;;;8.23;;
49488;SDS011;35382;51.484;11.476;2022-11-28T00:46:40;15.55;;;8.68;;
49488;SDS011;35382;51.484;11.476;2022-11-28T00:48:21;15.15;;;8.60;;
49488;SDS011;35382;51.484;11.476;2022-11-28T00:50:02;14.98;;;8.73;;
49488;SDS011;35382;51.484;11.476;2022-11-28T00:51:44;15.00;;;9.27;;
49488;SDS011;35382;51.484;11.476;2022-11-28T00:53:25;14.45;;;9.32;;
49488;SDS011;35382;51.484;11.476;2022-11-28T00:55:06;16.02;;;9.40;;
49488;SDS011;35382;51.484;11.476;2022-11-28T00:56:47;16.00;;;8.93;;
49488;SDS011;35382;51.484;11.476;2022-11-28T00:58:28;15.07;;;9.50;;
49488;SDS011;35382;51.484;11.476;2022-11-28T01:00:09;15.82;;;9.85;;
49488;SDS011;35382;51.484;11.476;2022-11-28T01:01:50;16.30;;;9.50;;
49488;SDS011;35382;51.484;11.476;2022-11-28T01:03:32;14.30;;;9.23;;
49488;SDS011;35382;51.484;11.476;2022-11-28T01:05:12;15.45;;;8.82;;
49488;SDS011;35382;51.484;11.476;2022-11-28T01:06:54;15.43;;;8.43;;
49488;SDS011;35382;51.484;11.476;2022-11-28T01:08:35;16.85;;;9.27;;
49488;SDS011;35382;51.484;11.476;2022-11-28T01:10:16;16.20;;;9.35;;
49488;SDS011;35382;51.484;11.476;2022-11-28T01:11:57;16.33;;;8.93;;
49488;SDS011;35382;51.484;11.476;2022-11-28T01:13:38;14.18;;;8.77;;
49488;SDS011;35382;51.484;11.476;2022-11-28T01:15:20;15.98;;;9.18;;
49488;SDS011;35382;51.484;11.476;2022-11-28T01:17:01;15.00;;;8.68;;
49488;SDS011;35382;51.484;11.476;2022-11-28T01:18:42;14.38;;;8.38;;
49488;SDS011;35382;51.484;11.476;2022-11-28T01:20:22;15.65;;;9.07;;
49488;SDS011;35382;51.484;11.476;2022-11-28T01:22:03;15.93;;;9.15;;
49488;SDS011;35382;51.484;11.476;2022-11-28T01:23:46;15.40;;;9.18;;
49488;SDS011;35382;51.484;11.476;2022-11-28T01:25:26;16.55;;;9.30;;
49488;SDS011;35382;51.484;11.476;2022-11-28T01:27:07;14.13;;;8.35;;
49488;SDS011;35382;51.484;11.476;2022-11-28T01:29:07;15.25;;;8.40;;
49488;SDS011;35382;51.484;11.476;2022-11-28T01:31:08;19.63;;;9.25;;
49488;SDS011;35382;51.484;11.476;2022-11-28T01:32:51;17.23;;;9.30;;
49488;SDS011;35382;51.484;11.476;2022-11-28T01:34:32;12.65;;;8.38;;
49488;SDS011;35382;51.484;11.476;2022-11-28T01:36:13;14.05;;;8.00;;
49488;SDS011;35382;51.484;11.476;2022-11-28T01:37:54;13.95;;;8.40;;
49488;SDS011;35382;51.484;11.476;2022-11-28T01:39:36;15.80;;;8.27;;
49488;SDS011;35382;51.484;11.476;2022-11-28T01:41:22;12.20;;;7.55;;
49488;SDS011;35382;51.484;11.476;2022-11-28T01:43:05;13.85;;;8.18;;
49488;SDS011;35382;51.484;11.476;2022-11-28T01:46:27;12.82;;;7.55;;
49488;SDS011;35382;51.484;11.476;2022-11-28T01:48:09;14.13;;;8.70;;
49488;SDS011;35382;51.484;11.476;2022-11-28T01:49:53;12.18;;;7.28;;
49488;SDS011;35382;51.484;11.476;2022-11-28T01:51:35;12.52;;;7.55;;
49488;SDS011;35382;51.484;11.476;2022-11-28T01:53:17;12.50;;;7.55;;
49488;SDS011;35382;51.484;11.476;2022-11-28T01:55:00;14.00;;;7.97;;
49488;SDS011;35382;51.484;11.476;2022-11-28T01:56:54;12.10;;;6.78;;
49488;SDS011;35382;51.484;11.476;2022-11-28T01:58:42;12.32;;;7.60;;
49488;SDS011;35382;51.484;11.476;2022-11-28T02:00:26;13.30;;;6.60;;
49488;SDS011;35382;51.484;11.476;2022-11-28T02:02:08;11.05;;;6.63;;
49488;SDS011;35382;51.484;11.476;2022-11-28T02:03:54;12.63;;;6.40;;
49488;SDS011;35382;51.484;11.476;2022-11-28T02:05:36;11.20;;;6.55;;
49488;SDS011;35382;51.484;11.476;2022-11-28T02:07:19;12.10;;;7.43;;
49488;SDS011;35382;51.484;11.476;2022-11-28T02:09:00;10.70;;;6.47;;
49488;SDS011;35382;51.484;11.476;2022-11-28T02:13:21;11.38;;;6.82;;
49488;SDS011;35382;51.484;11.476;2022-11-28T02:27:27;11.00;;;6.32;;
49488;SDS011;35382;51.484;11.476;2022-11-28T02:31:25;10.38;;;6.63;;
49488;SDS011;35382;51.484;11.476;2022-11-28T02:36:53;9.23;;;6.20;;
49488;SDS011;35382;51.484;11.476;2022-11-28T02:40:46;10.05;;;6.50;;
49488;SDS011;35382;51.484;11.476;2022-11-28T02:44:46;10.73;;;6.95;;
49488;SDS011;35382;51.484;11.476;2022-11-28T02:48:24;8.70;;;6.07;;
49488;SDS011;35382;51.484;11.476;2022-11-28T02:50:34;9.60;;;5.88;;
49488;SDS011;35382;51.484;11.476;2022-11-28T02:54:10;11.68;;;6.88;;
49488;SDS011;35382;51.484;11.476;2022-11-28T02:55:54;12.90;;;7.40;;
49488;SDS011;35382;51.484;11.476;2022-11-28T02:57:37;10.02;;;6.70;;
49488;SDS011;35382;51.484;11.476;2022-11-28T03:01:20;13.52;;;7.60;;
49488;SDS011;35382;51.484;11.476;2022-11-28T03:04:56;12.25;;;7.22;;
49488;SDS011;35382;51.484;11.476;2022-11-28T03:06:49;12.63;;;7.45;;
49488;SDS011;35382;51.484;11.476;2022-11-28T03:08:49;13.60;;;7.82;;
49488;SDS011;35382;51.484;11.476;2022-11-28T03:10:50;11.38;;;7.63;;
49488;SDS011;35382;51.484;11.476;2022-11-28T03:12:54;13.10;;;7.80;;
49488;SDS011;35382;51.484;11.476;2022-11-28T03:16:33;12.65;;;7.55;;
49488;SDS011;35382;51.484;11.476;2022-11-28T03:18:23;13.68;;;8.77;;
49488;SDS011;35382;51.484;11.476;2022-11-28T03:20:22;13.18;;;8.10;;
49488;SDS011;35382;51.484;11.476;2022-11-28T03:24:05;12.93;;;7.68;;
49488;SDS011;35382;51.484;11.476;2022-11-28T03:28:01;14.13;;;8.20;;
49488;SDS011;35382;51.484;11.476;2022-11-28T03:29:54;15.32;;;7.85;;
49488;SDS011;35382;51.484;11.476;2022-11-28T03:31:41;12.98;;;8.23;;
49488;SDS011;35382;51.484;11.476;2022-11-28T03:33:30;13.10;;;8.20;;
49488;SDS011;35382;51.484;11.476;2022-11-28T03:35:14;13.00;;;7.88;;
49488;SDS011;35382;51.484;11.476;2022-11-28T03:36:59;13.55;;;8.10;;
49488;SDS011;35382;51.484;11.476;2022-11-28T03:38:44;14.18;;;8.27;;
49488;SDS011;35382;51.484;11.476;2022-11-28T03:40:31;14.38;;;8.75;;
49488;SDS011;35382;51.484;11.476;2022-11-28T03:42:16;14.52;;;8.05;;
49488;SDS011;35382;51.484;11.476;2022-11-28T03:44:02;14.85;;;9.13;;
49488;SDS011;35382;51.484;11.476;2022-11-28T03:45:49;14.55;;;8.55;;
49488;SDS011;35382;51.484;11.476;2022-11-28T03:47:34;15.27;;;8.50;;
49488;SDS011;35382;51.484;11.476;2022-11-28T03:49:23;15.20;;;8.70;;
49488;SDS011;35382;51.484;11.476;2022-11-28T03:51:10;14.13;;;8.65;;
49488;SDS011;35382;51.484;11.476;2022-11-28T03:53:00;13.77;;;8.73;;
49488;SDS011;35382;51.484;11.476;2022-11-28T03:56:51;12.18;;;7.68;;
49488;SDS011;35382;51.484;11.476;2022-11-28T03:58:40;14.23;;;9.18;;
49488;SDS011;35382;51.484;11.476;2022-11-28T04:00:27;13.52;;;8.20;;
49488;SDS011;35382;51.484;11.476;2022-11-28T04:04:35;13.52;;;8.13;;
49488;SDS011;35382;51.484;11.476;2022-11-28T04:06:29;10.85;;;7.22;;
49488;SDS011;35382;51.484;11.476;2022-11-28T04:08:42;11.60;;;7.50;;
49488;SDS011;35382;51.484;11.476;2022-11-28T04:10:29;11.85;;;7.15;;
49488;SDS011;35382;51.484;11.476;2022-11-28T04:12:38;12.88;;;7.03;;
49488;SDS011;35382;51.484;11.476;2022-11-28T04:14:40;11.60;;;7.20;;
49488;SDS011;35382;51.484;11.476;2022-11-28T04:16:30;11.48;;;7.57;;
49488;SDS011;35382;51.484;11.476;2022-11-28T04:18:18;11.35;;;7.32;;
49488;SDS011;35382;51.484;11.476;2022-11-28T04:20:12;11.85;;;6.85;;
49488;SDS011;35382;51.484;11.476;2022-11-28T04:22:01;11.13;;;7.40;;
49488;SDS011;35382;51.484;11.476;2022-11-28T04:23:58;10.18;;;6.97;;
49488;SDS011;35382;51.484;11.476;2022-11-28T04:25:43;11.80;;;6.80;;
49488;SDS011;35382;51.484;11.476;2022-11-28T04:29:13;11.90;;;6.90;;
49488;SDS011;35382;51.484;11.476;2022-11-28T04:30:56;10.52;;;6.68;;
49488;SDS011;35382;51.484;11.476;2022-11-28T04:32:42;11.48;;;6.38;;
49488;SDS011;35382;51.484;11.476;2022-11-28T04:34:27;12.43;;;7.32;;
49488;SDS011;35382;51.484;11.476;2022-11-28T04:36:10;10.50;;;6.50;;
49488;SDS011;35382;51.484;11.476;2022-11-28T04:37:52;10.20;;;6.13;;
49488;SDS011;35382;51.484;11.476;2022-11-28T04:39:34;10.45;;;6.78;;
49488;SDS011;35382;51.484;11.476;2022-11-28T04:41:17;11.90;;;7.05;;
49488;SDS011;35382;51.484;11.476;2022-11-28T04:43:05;10.45;;;7.13;;
49488;SDS011;35382;51.484;11.476;2022-11-28T04:44:52;9.77;;;6.07;;
49488;SDS011;35382;51.484;11.476;2022-11-28T04:46:57;9.65;;;6.05;;
49488;SDS011;35382;51.484;11.476;2022-11-28T04:48:39;8.60;;;5.78;;
49488;SDS011;35382;51.484;11.476;2022-11-28T04:50:20;10.40;;;6.50;;
49488;SDS011;35382;51.484;11.476;2022-11-28T04:53:57;12.18;;;7.82;;
49488;SDS011;35382;51.484;11.476;2022-11-28T04:55:45;10.05;;;6.65;;
49488;SDS011;35382;51.484;11.476;2022-11-28T04:57:37;10.93;;;6.38;;
49488;SDS011;35382;51.484;11.476;2022-11-28T04:59:21;11.13;;;6.63;;
49488;SDS011;35382;51.484;11.476;2022-11-28T05:01:06;10.25;;;6.57;;
49488;SDS011;35382;51.484;11.476;2022-11-28T05:02:50;10.77;;;6.53;;
49488;SDS011;35382;51.484;11.476;2022-11-28T05:04:34;10.48;;;6.78;;
49488;SDS011;35382;51.484;11.476;2022-11-28T05:06:29;12.05;;;6.38;;
49488;SDS011;35382;51.484;11.476;2022-11-28T05:08:12;11.45;;;6.90;;
49488;SDS011;35382;51.484;11.476;2022-11-28T05:09:53;10.48;;;7.05;;
49488;SDS011;35382;51.484;11.476;2022-11-28T05:11:37;12.88;;;7.50;;
49488;SDS011;35382;51.484;11.476;2022-11-28T05:13:18;11.77;;;7.38;;
49488;SDS011;35382;51.484;11.476;2022-11-28T05:14:59;10.27;;;6.82;;
49488;SDS011;35382;51.484;11.476;2022-11-28T05:16:39;11.90;;;7.18;;
49488;SDS011;35382;51.484;11.476;2022-11-28T05:18:20;10.60;;;7.50;;
49488;SDS011;35382;51.484;11.476;2022-11-28T05:20:01;10.38;;;6.90;;
49488;SDS011;35382;51.484;11.476;2022-11-28T05:21:42;11.07;;;7.57;;
49488;SDS011;35382;51.484;11.476;2022-11-28T05:23:24;11.55;;;7.35;;
49488;SDS011;35382;51.484;11.476;2022-11-28T05:25:05;11.32;;;7.32;;
49488;SDS011;35382;51.484;11.476;2022-11-28T05:26:46;10.15;;;7.28;;
49488;SDS011;35382;51.484;11.476;2022-11-28T05:28:27;10.90;;;7.32;;
49488;SDS011;35382;51.484;11.476;2022-11-28T05:30:08;11.77;;;7.07;;
49488;SDS011;35382;51.484;11.476;2022-11-28T05:31:50;10.73;;;6.93;;
49488;SDS011;35382;51.484;11.476;2022-11-28T05:33:31;10.88;;;6.65;;
49488;SDS011;35382;51.484;11.476;2022-11-28T05:35:12;11.13;;;6.80;;
49488;SDS011;35382;51.484;11.476;2022-11-28T05:36:53;9.55;;;6.55;;
49488;SDS011;35382;51.484;11.476;2022-11-28T05:38:34;10.98;;;6.28;;
49488;SDS011;35382;51.484;11.476;2022-11-28T05:40:16;11.43;;;6.55;;
49488;SDS011;35382;51.484;11.476;2022-11-28T05:41:57;10.88;;;7.07;;
49488;SDS011;35382;51.484;11.476;2022-11-28T05:43:38;11.30;;;7.00;;
49488;SDS011;35382;51.484;11.476;2022-11-28T05:45:19;11.73;;;6.97;;
49488;SDS011;35382;51.484;11.476;2022-11-28T05:47:00;11.13;;;6.65;;
49488;SDS011;35382;51.484;11.476;2022-11-28T05:48:41;10.07;;;6.03;;
49488;SDS011;35382;51.484;11.476;2022-11-28T05:50:22;11.18;;;6.72;;
49488;SDS011;35382;51.484;11.476;2022-11-28T05:52:03;10.10;;;6.32;;
49488;SDS011;35382;51.484;11.476;2022-11-28T05:53:44;12.55;;;6.78;;
49488;SDS011;35382;51.484;11.476;2022-11-28T05:55:25;10.65;;;6.30;;
49488;SDS011;35382;51.484;11.476;2022-11-28T05:57:06;10.75;;;6.75;;
49488;SDS011;35382;51.484;11.476;2022-11-28T05:58:47;9.63;;;6.78;;
49488;SDS011;35382;51.484;11.476;2022-11-28T06:00:28;10.20;;;6.00;;
49488;SDS011;35382;51.484;11.476;2022-11-28T06:02:09;10.27;;;5.82;;
49488;SDS011;35382;51.484;11.476;2022-11-28T06:03:51;13.85;;;6.72;;
49488;SDS011;35382;51.484;11.476;2022-11-28T06:05:38;12.50;;;7.78;;
49488;SDS011;35382;51.484;11.476;2022-11-28T06:07:20;10.98;;;6.35;;
49488;SDS011;35382;51.484;11.476;2022-11-28T06:09:02;11.45;;;7.28;;
49488;SDS011;35382;51.484;11.476;2022-11-28T06:10:43;11.18;;;7.10;;
49488;SDS011;35382;51.484;11.476;2022-11-28T06:12:24;9.85;;;6.50;;
49488;SDS011;35382;51.484;11.476;2022-11-28T06:14:05;9.63;;;6.15;;
49488;SDS011;35382;51.484;11.476;2022-11-28T06:15:46;9.32;;;6.07;;
49488;SDS011;35382;51.484;11.476;2022-11-28T06:17:27;9.88;;;6.60;;
49488;SDS011;35382;51.484;11.476;2022-11-28T06:19:11;8.55;;;5.65;;
49488;SDS011;35382;51.484;11.476;2022-11-28T06:20:52;8.98;;;5.72;;
49488;SDS011;35382;51.484;11.476;2022-11-28T06:22:34;11.13;;;6.18;;
49488;SDS011;35382;51.484;11.476;2022-11-28T06:24:15;11.35;;;6.30;;
49488;SDS011;35382;51.484;11.476;2022-11-28T06:25:56;10.13;;;6.03;;
49488;SDS011;35382;51.484;11.476;2022-11-28T06:27:37;9.93;;;6.15;;
49488;SDS011;35382;51.484;11.476;2022-11-28T06:29:18;11.95;;;6.00;;
49488;SDS011;35382;51.484;11.476;2022-11-28T06:30:59;9.80;;;6.28;;
49488;SDS011;35382;51.484;11.476;2022-11-28T06:32:40;10.38;;;6.45;;
49488;SDS011;35382;51.484;11.476;2022-11-28T06:34:21;9.27;;;5.35;;
49488;SDS011;35382;51.484;11.476;2022-11-28T06:36:03;9.25;;;5.95;;
49488;SDS011;35382;51.484;11.476;2022-11-28T06:37:45;10.65;;;6.15;;
49488;SDS011;35382;51.484;11.476;2022-11-28T06:39:26;10.48;;;6.20;;
49488;SDS011;35382;51.484;11.476;2022-11-28T06:41:08;8.40;;;5.55;;
49488;SDS011;35382;51.484;11.476;2022-11-28T06:42:51;9.55;;;5.95;;
49488;SDS011;35382;51.484;11.476;2022-11-28T06:44:32;10.27;;;6.63;;
49488;SDS011;35382;51.484;11.476;2022-11-28T06:46:13;13.02;;;7.97;;
49488;SDS011;35382;51.484;11.476;2022-11-28T06:47:56;10.90;;;7.00;;
49488;SDS011;35382;51.484;11.476;2022-11-28T06:49:37;11.88;;;7.55;;
49488;SDS011;35382;51.484;11.476;2022-11-28T06:51:18;13.40;;;9.10;;
49488;SDS011;35382;51.484;11.476;2022-11-28T06:53:00;13.25;;;7.93;;
49488;SDS011;35382;51.484;11.476;2022-11-28T06:54:41;9.23;;;6.30;;
49488;SDS011;35382;51.484;11.476;2022-11-28T06:56:22;11.60;;;7.78;;
49488;SDS011;35382;51.484;11.476;2022-11-28T06:58:03;13.73;;;8.80;;
49488;SDS011;35382;51.484;11.476;2022-11-28T06:59:44;14.10;;;8.55;;
49488;SDS011;35382;51.484;11.476;2022-11-28T07:01:26;11.88;;;7.28;;
49488;SDS011;35382;51.484;11.476;2022-11-28T07:03:08;11.45;;;7.13;;
49488;SDS011;35382;51.484;11.476;2022-11-28T07:04:49;11.57;;;7.15;;
49488;SDS011;35382;51.484;11.476;2022-11-28T07:06:31;12.25;;;7.05;;
49488;SDS011;35382;51.484;11.476;2022-11-28T07:08:13;10.48;;;6.82;;
49488;SDS011;35382;51.484;11.476;2022-11-28T07:09:54;9.43;;;5.85;;
49488;SDS011;35382;51.484;11.476;2022-11-28T07:11:34;9.15;;;6.35;;
49488;SDS011;35382;51.484;11.476;2022-11-28T07:13:15;10.18;;;6.18;;
49488;SDS011;35382;51.484;11.476;2022-11-28T07:14:56;9.88;;;5.95;;
49488;SDS011;35382;51.484;11.476;2022-11-28T07:16:37;10.30;;;6.55;;
49488;SDS011;35382;51.484;11.476;2022-11-28T07:18:18;13.95;;;8.02;;
49488;SDS011;35382;51.484;11.476;2022-11-28T07:19:59;15.95;;;9.70;;
49488;SDS011;35382;51.484;11.476;2022-11-28T07:21:40;20.30;;;11.32;;
49488;SDS011;35382;51.484;11.476;2022-11-28T07:23:21;13.20;;;7.38;;
49488;SDS011;35382;51.484;11.476;2022-11-28T07:25:02;22.92;;;13.90;;
49488;SDS011;35382;51.484;11.476;2022-11-28T07:26:47;35.08;;;18.90;;
49488;SDS011;35382;51.484;11.476;2022-11-28T07:28:28;22.33;;;13.18;;
49488;SDS011;35382;51.484;11.476;2022-11-28T07:30:10;12.40;;;8.05;;
49488;SDS011;35382;51.484;11.476;2022-11-28T07:31:51;11.85;;;6.68;;
49488;SDS011;35382;51.484;11.476;2022-11-28T07:33:35;10.30;;;6.05;;
49488;SDS011;35382;51.484;11.476;2022-11-28T07:35:17;11.02;;;5.53;;
49488;SDS011;35382;51.484;11.476;2022-11-28T07:36:58;11.95;;;7.03;;
49488;SDS011;35382;51.484;11.476;2022-11-28T07:38:39;13.23;;;7.53;;
49488;SDS011;35382;51.484;11.476;2022-11-28T07:40:20;10.95;;;7.50;;
49488;SDS011;35382;51.484;11.476;2022-11-28T07:42:02;13.95;;;8.52;;
49488;SDS011;35382;51.484;11.476;2022-11-28T07:43:43;41.17;;;20.38;;
49488;SDS011;35382;51.484;11.476;2022-11-28T07:45:25;124.30;;;54.38;;
49488;SDS011;35382;51.484;11.476;2022-11-28T07:47:06;348.30;;;157.18;;
49488;SDS011;35382;51.484;11.476;2022-11-28T07:48:47;320.42;;;139.80;;
49488;SDS011;35382;51.484;11.476;2022-11-28T07:50:28;160.32;;;71.45;;
49488;SDS011;35382;51.484;11.476;2022-11-28T07:52:09;63.20;;;29.38;;
49488;SDS011;35382;51.484;11.476;2022-11-28T07:53:50;64.80;;;30.83;;
49488;SDS011;35382;51.484;11.476;2022-11-28T07:55:33;37.67;;;20.23;;
49488;SDS011;35382;51.484;11.476;2022-11-28T07:57:15;19.05;;;10.25;;
49488;SDS011;35382;51.484;11.476;2022-11-28T07:58:57;30.77;;;15.25;;
49488;SDS011;35382;51.484;11.476;2022-11-28T08:00:39;66.03;;;29.10;;
49488;SDS011;35382;51.484;11.476;2022-11-28T08:02:20;43.08;;;18.73;;
49488;SDS011;35382;51.484;11.476;2022-11-28T08:04:02;79.60;;;39.38;;
49488;SDS011;35382;51.484;11.476;2022-11-28T08:05:44;21.85;;;12.10;;
49488;SDS011;35382;51.484;11.476;2022-11-28T08:07:29;26.75;;;12.98;;
49488;SDS011;35382;51.484;11.476;2022-11-28T08:09:10;61.20;;;29.00;;
49488;SDS011;35382;51.484;11.476;2022-11-28T08:10:57;27.35;;;13.77;;
49488;SDS011;35382;51.484;11.476;2022-11-28T08:12:40;44.88;;;22.25;;
49488;SDS011;35382;51.484;11.476;2022-11-28T08:14:20;70.82;;;35.33;;
49488;SDS011;35382;51.484;11.476;2022-11-28T08:16:06;21.90;;;12.40;;
49488;SDS011;35382;51.484;11.476;2022-11-28T08:17:49;13.27;;;8.13;;
49488;SDS011;35382;51.484;11.476;2022-11-28T08:19:30;14.50;;;8.82;;
49488;SDS011;35382;51.484;11.476;2022-11-28T08:21:16;35.00;;;18.90;;
49488;SDS011;35382;51.484;11.476;2022-11-28T08:22:58;19.57;;;11.00;;
49488;SDS011;35382;51.484;11.476;2022-11-28T08:24:39;14.07;;;8.68;;
49488;SDS011;35382;51.484;11.476;2022-11-28T08:26:21;20.70;;;11.55;;
49488;SDS011;35382;51.484;11.476;2022-11-28T08:28:03;13.68;;;8.60;;
49488;SDS011;35382;51.484;11.476;2022-11-28T08:29:44;13.75;;;9.18;;
49488;SDS011;35382;51.484;11.476;2022-11-28T08:31:26;14.65;;;9.50;;
49488;SDS011;35382;51.484;11.476;2022-11-28T08:33:14;15.27;;;9.50;;
49488;SDS011;35382;51.484;11.476;2022-11-28T08:34:55;18.98;;;10.13;;
49488;SDS011;35382;51.484;11.476;2022-11-28T08:36:36;16.38;;;10.07;;
49488;SDS011;35382;51.484;11.476;2022-11-28T08:38:18;15.52;;;10.18;;
49488;SDS011;35382;51.484;11.476;2022-11-28T08:39:59;15.02;;;9.85;;
49488;SDS011;35382;51.484;11.476;2022-11-28T08:41:40;16.30;;;9.77;;
49488;SDS011;35382;51.484;11.476;2022-11-28T08:43:21;17.33;;;10.50;;
49488;SDS011;35382;51.484;11.476;2022-11-28T08:45:02;17.38;;;10.70;;
49488;SDS011;35382;51.484;11.476;2022-11-28T08:46:43;43.35;;;25.10;;
49488;SDS011;35382;51.484;11.476;2022-11-28T08:48:24;30.75;;;17.67;;
49488;SDS011;35382;51.484;11.476;2022-11-28T08:50:05;30.98;;;18.38;;
49488;SDS011;35382;51.484;11.476;2022-11-28T08:51:47;19.15;;;12.50;;
49488;SDS011;35382;51.484;11.476;2022-11-28T08:53:27;19.73;;;11.07;;
49488;SDS011;35382;51.484;11.476;2022-11-28T08:55:08;17.05;;;11.13;;
49488;SDS011;35382;51.484;11.476;2022-11-28T08:56:49;17.13;;;10.18;;
49488;SDS011;35382;51.484;11.476;2022-11-28T08:58:30;20.10;;;12.82;;
49488;SDS011;35382;51.484;11.476;2022-11-28T09:00:11;16.67;;;10.15;;
49488;SDS011;35382;51.484;11.476;2022-11-28T09:01:53;13.90;;;9.85;;
49488;SDS011;35382;51.484;11.476;2022-11-28T09:03:34;14.68;;;9.38;;
49488;SDS011;35382;51.484;11.476;2022-11-28T09:05:15;18.85;;;10.32;;
49488;SDS011;35382;51.484;11.476;2022-11-28T09:06:56;14.88;;;8.90;;
49488;SDS011;35382;51.484;11.476;2022-11-28T09:08:37;15.70;;;9.23;;
49488;SDS011;35382;51.484;11.476;2022-11-28T09:10:18;14.98;;;9.55;;
49488;SDS011;35382;51.484;11.476;2022-11-28T09:11:59;16.05;;;9.10;;
49488;SDS011;35382;51.484;11.476;2022-11-28T09:13:40;16.58;;;9.07;;
49488;SDS011;35382;51.484;11.476;2022-11-28T09:15:21;16.13;;;9.45;;
49488;SDS011;35382;51.484;11.476;2022-11-28T09:17:02;18.13;;;9.77;;
49488;SDS011;35382;51.484;11.476;2022-11-28T09:18:43;16.23;;;9.48;;
49488;SDS011;35382;51.484;11.476;2022-11-28T09:20:24;16.42;;;9.77;;
49488;SDS011;35382;51.484;11.476;2022-11-28T09:22:05;16.30;;;9.18;;
49488;SDS011;35382;51.484;11.476;2022-11-28T09:23:46;14.63;;;9.15;;
49488;SDS011;35382;51.484;11.476;2022-11-28T09:25:27;14.93;;;9.48;;
49488;SDS011;35382;51.484;11.476;2022-11-28T09:27:08;17.38;;;10.50;;
49488;SDS011;35382;51.484;11.476;2022-11-28T09:28:49;15.35;;;9.93;;
49488;SDS011;35382;51.484;11.476;2022-11-28T09:30:30;16.20;;;9.90;;
49488;SDS011;35382;51.484;11.476;2022-11-28T09:32:11;13.82;;;8.98;;
49488;SDS011;35382;51.484;11.476;2022-11-28T09:33:52;16.63;;;9.18;;
49488;SDS011;35382;51.484;11.476;2022-11-28T09:35:36;13.32;;;9.07;;
49488;SDS011;35382;51.484;11.476;2022-11-28T09:37:17;14.25;;;8.80;;
49488;SDS011;35382;51.484;11.476;2022-11-28T09:38:58;15.85;;;9.55;;
49488;SDS011;35382;51.484;11.476;2022-11-28T09:40:41;12.88;;;8.50;;
49488;SDS011;35382;51.484;11.476;2022-11-28T09:44:20;13.50;;;8.95;;
49488;SDS011;35382;51.484;11.476;2022-11-28T09:46:12;16.30;;;9.40;;
49488;SDS011;35382;51.484;11.476;2022-11-28T09:48:00;14.98;;;9.35;;
49488;SDS011;35382;51.484;11.476;2022-11-28T09:50:02;15.55;;;9.85;;
49488;SDS011;35382;51.484;11.476;2022-11-28T09:53:46;18.75;;;10.50;;
49488;SDS011;35382;51.484;11.476;2022-11-28T09:55:39;22.33;;;13.63;;
49488;SDS011;35382;51.484;11.476;2022-11-28T09:57:35;15.93;;;9.80;;
49488;SDS011;35382;51.484;11.476;2022-11-28T09:59:26;15.88;;;10.23;;
49488;SDS011;35382;51.484;11.476;2022-11-28T10:04:48;23.60;;;15.52;;
49488;SDS011;35382;51.484;11.476;2022-11-28T10:08:46;25.90;;;18.10;;
49488;SDS011;35382;51.484;11.476;2022-11-28T10:19:14;21.38;;;16.52;;
49488;SDS011;35382;51.484;11.476;2022-11-28T10:20:59;17.10;;;11.07;;
49488;SDS011;35382;51.484;11.476;2022-11-28T10:22:51;16.83;;;9.50;;
49488;SDS011;35382;51.484;11.476;2022-11-28T10:24:40;14.85;;;8.35;;
49488;SDS011;35382;51.484;11.476;2022-11-28T10:26:33;13.88;;;9.30;;
49488;SDS011;35382;51.484;11.476;2022-11-28T10:28:18;15.45;;;8.68;;
49488;SDS011;35382;51.484;11.476;2022-11-28T10:30:05;17.52;;;9.00;;
49488;SDS011;35382;51.484;11.476;2022-11-28T10:31:49;15.35;;;9.15;;
49488;SDS011;35382;51.484;11.476;2022-11-28T10:35:46;14.02;;;8.63;;
49488;SDS011;35382;51.484;11.476;2022-11-28T10:37:34;16.20;;;9.50;;
49488;SDS011;35382;51.484;11.476;2022-11-28T10:39:17;14.68;;;8.98;;
49488;SDS011;35382;51.484;11.476;2022-11-28T10:41:00;16.08;;;9.55;;
49488;SDS011;35382;51.484;11.476;2022-11-28T10:42:57;13.60;;;8.68;;
49488;SDS011;35382;51.484;11.476;2022-11-28T10:47:04;14.38;;;8.35;;
49488;SDS011;35382;51.484;11.476;2022-11-28T10:49:02;14.07;;;8.20;;
49488;SDS011;35382;51.484;11.476;2022-11-28T10:52:45;15.73;;;10.18;;
49488;SDS011;35382;51.484;11.476;2022-11-28T10:56:41;14.45;;;8.85;;
49488;SDS011;35382;51.484;11.476;2022-11-28T10:58:51;18.35;;;9.23;;
49488;SDS011;35382;51.484;11.476;2022-11-28T11:00:44;17.70;;;10.13;;
49488;SDS011;35382;51.484;11.476;2022-11-28T11:04:34;28.15;;;15.65;;
49488;SDS011;35382;51.484;11.476;2022-11-28T11:06:17;22.05;;;13.07;;
49488;SDS011;35382;51.484;11.476;2022-11-28T11:08:03;18.67;;;10.82;;
49488;SDS011;35382;51.484;11.476;2022-11-28T11:09:51;15.48;;;8.80;;
49488;SDS011;35382;51.484;11.476;2022-11-28T11:11:33;16.40;;;9.27;;
49488;SDS011;35382;51.484;11.476;2022-11-28T11:13:30;13.85;;;9.00;;
49488;SDS011;35382;51.484;11.476;2022-11-28T11:15:15;15.70;;;9.27;;
49488;SDS011;35382;51.484;11.476;2022-11-28T11:16:56;14.38;;;8.55;;
49488;SDS011;35382;51.484;11.476;2022-11-28T11:22:14;13.25;;;8.30;;
49488;SDS011;35382;51.484;11.476;2022-11-28T11:24:17;14.60;;;8.93;;
49488;SDS011;35382;51.484;11.476;2022-11-28T11:25:58;14.98;;;8.48;;
49488;SDS011;35382;51.484;11.476;2022-11-28T11:27:47;16.95;;;8.95;;
49488;SDS011;35382;51.484;11.476;2022-11-28T11:29:31;14.82;;;9.00;;
49488;SDS011;35382;51.484;11.476;2022-11-28T11:31:23;12.85;;;8.85;;